Time;durP1;ratioP1;P1;durP2;ratioP2;P2;SDS_P1;SDS_P2;PMS_P1;PMS_P2;Temp;Humidity;BMP_temperature;BMP_pressure;BME280_temperature;BME280_humidity;BME280_pressure;Samples;Min_cycle;Max_cycle;Signal;HPM_P1;HPM_P2
2022/10/18 00:02:08;;;;;;;3.22;2.50;;;;;;;;;;5008299;28;20208;-67
2022/10/18 00:04:35;;;;;;;3.20;2.60;;;;;;;;;;5008504;28;20235;-69
2022/10/18 00:07:02;;;;;;;3.60;2.90;;;;;;;;;;5008692;28;20232;-69
2022/10/18 00:09:29;;;;;;;2.88;2.67;;;;;;;;;;5008543;28;20205;-69
2022/10/18 00:11:57;;;;;;;2.60;2.35;;;;;;;;;;5007796;28;20271;-69
2022/10/18 00:14:25;;;;;;;2.08;1.98;;;;;;;;;;5008121;28;20216;-66
2022/10/18 00:16:52;;;;;;;3.30;2.20;;;;;;;;;;5007407;28;20204;-66
2022/10/18 00:19:19;;;;;;;3.20;2.70;;;;;;;;;;5007492;28;20204;-66
2022/10/18 00:21:46;;;;;;;6.00;2.60;;;;;;;;;;5007826;28;20695;-69
2022/10/18 00:24:13;;;;;;;3.47;2.58;;;;;;;;;;5008952;28;20208;-69
2022/10/18 00:26:40;;;;;;;4.53;2.90;;;;;;;;;;5008099;28;20212;-67
2022/10/18 00:29:07;;;;;;;3.45;2.47;;;;;;;;;;5007556;28;20578;-69
2022/10/18 00:31:36;;;;;;;8.27;3.35;;;;;;;;;;5008595;28;20212;-67
2022/10/18 00:34:04;;;;;;;3.42;3.13;;;;;;;;;;5008097;28;20239;-69
2022/10/18 00:36:33;;;;;;;3.45;2.80;;;;;;;;;;5007763;28;20206;-69
2022/10/18 00:39:00;;;;;;;2.90;2.70;;;;;;;;;;5006856;28;20227;-66
2022/10/18 00:41:28;;;;;;;5.38;2.63;;;;;;;;;;5007283;28;20850;-67
2022/10/18 00:43:57;;;;;;;10.20;3.15;;;;;;;;;;5006106;28;20208;-67
2022/10/18 00:46:25;;;;;;;4.38;3.13;;;;;;;;;;5006359;28;20201;-67
2022/10/18 00:48:55;;;;;;;3.30;3.03;;;;;;;;;;5006457;28;20213;-69
2022/10/18 00:51:24;;;;;;;4.20;2.95;;;;;;;;;;5006759;28;20209;-67
2022/10/18 00:53:51;;;;;;;3.53;3.30;;;;;;;;;;5006279;28;20228;-67
2022/10/18 00:56:18;;;;;;;4.93;3.10;;;;;;;;;;5007292;28;20217;-67
2022/10/18 00:58:46;;;;;;;3.83;3.42;;;;;;;;;;5006628;28;20225;-66
2022/10/18 01:01:13;;;;;;;3.90;3.25;;;;;;;;;;5006674;28;20216;-66
2022/10/18 01:03:41;;;;;;;6.82;3.13;;;;;;;;;;5004355;28;20220;-68
2022/10/18 01:06:10;;;;;;;3.60;3.13;;;;;;;;;;5006919;28;20212;-69
2022/10/18 01:08:46;;;;;;;7.50;3.50;;;;;;;;;;5007313;28;20749;-67
2022/10/18 01:11:29;;;;;;;3.63;3.20;;;;;;;;;;4997668;28;20209;-67
2022/10/18 01:14:06;;;;;;;4.68;2.63;;;;;;;;;;4990347;28;20237;-67
2022/10/18 01:16:36;;;;;;;9.82;3.15;;;;;;;;;;5007064;28;20216;-66
2022/10/18 01:19:07;;;;;;;3.45;2.70;;;;;;;;;;5007578;28;20208;-67
2022/10/18 01:21:43;;;;;;;3.55;3.25;;;;;;;;;;5006607;28;20762;-69
2022/10/18 01:24:28;;;;;;;4.78;3.38;;;;;;;;;;4998691;28;20196;-69
2022/10/18 01:27:02;;;;;;;3.55;3.30;;;;;;;;;;4996407;28;20711;-67
2022/10/18 01:29:33;;;;;;;3.55;3.33;;;;;;;;;;5005783;28;20212;-69
2022/10/18 01:32:03;;;;;;;4.18;3.10;;;;;;;;;;5005127;28;20213;-69
2022/10/18 01:34:32;;;;;;;6.38;3.30;;;;;;;;;;5005267;28;20221;-67
2022/10/18 01:37:00;;;;;;;8.02;3.13;;;;;;;;;;4994337;28;20255;-67
2022/10/18 01:39:29;;;;;;;4.10;3.15;;;;;;;;;;5007472;28;20213;-69
2022/10/18 01:41:57;;;;;;;3.78;3.35;;;;;;;;;;5005380;28;20580;-69
2022/10/18 01:44:26;;;;;;;4.10;3.35;;;;;;;;;;5005418;28;20201;-69
2022/10/18 01:46:54;;;;;;;3.45;3.22;;;;;;;;;;5005578;28;20197;-69
2022/10/18 01:49:23;;;;;;;3.15;2.97;;;;;;;;;;5005441;28;20206;-68
2022/10/18 01:51:50;;;;;;;3.45;3.15;;;;;;;;;;5005160;28;20201;-66
2022/10/18 01:54:19;;;;;;;3.30;3.05;;;;;;;;;;5005828;28;20634;-69
2022/10/18 01:56:53;;;;;;;3.05;2.80;;;;;;;;;;5005872;28;20412;-69
2022/10/18 01:59:37;;;;;;;4.47;3.60;;;;;;;;;;5004019;28;20228;-69
2022/10/18 02:02:08;;;;;;;6.15;3.00;;;;;;;;;;5005622;28;20212;-69
2022/10/18 02:04:41;;;;;;;5.35;2.88;;;;;;;;;;5001989;28;20241;-67
2022/10/18 02:07:13;;;;;;;2.95;2.70;;;;;;;;;;5004067;28;20205;-67
2022/10/18 02:09:42;;;;;;;3.58;3.05;;;;;;;;;;5004685;28;20216;-67
2022/10/18 02:12:11;;;;;;;3.35;3.05;;;;;;;;;;5004332;28;20690;-69
2022/10/18 02:14:39;;;;;;;2.88;2.65;;;;;;;;;;5005234;28;20229;-67
2022/10/18 02:17:08;;;;;;;5.05;3.17;;;;;;;;;;5004965;28;20205;-67
2022/10/18 02:19:39;;;;;;;3.60;3.30;;;;;;;;;;5003447;28;20230;-69
2022/10/18 02:22:07;;;;;;;3.33;3.13;;;;;;;;;;5005289;28;20296;-70
2022/10/18 02:24:36;;;;;;;4.68;3.00;;;;;;;;;;5002530;28;20205;-69
2022/10/18 02:27:03;;;;;;;4.28;3.10;;;;;;;;;;5004941;28;20264;-69
2022/10/18 02:29:30;;;;;;;5.28;2.80;;;;;;;;;;5005951;28;20551;-69
2022/10/18 02:32:04;;;;;;;3.30;3.10;;;;;;;;;;5005856;28;20228;-66
2022/10/18 02:34:32;;;;;;;4.90;3.45;;;;;;;;;;5006173;28;20786;-67
2022/10/18 02:37:01;;;;;;;5.57;3.38;;;;;;;;;;5004570;28;20217;-69
2022/10/18 02:39:31;;;;;;;7.03;3.17;;;;;;;;;;5006289;28;20671;-69
2022/10/18 02:41:58;;;;;;;8.95;3.00;;;;;;;;;;5009066;28;20208;-66
2022/10/18 02:44:26;;;;;;;4.03;3.10;;;;;;;;;;5009302;28;20197;-69
2022/10/18 02:46:53;;;;;;;3.17;2.97;;;;;;;;;;5010075;28;20297;-69
2022/10/18 02:49:25;;;;;;;7.78;3.08;;;;;;;;;;5008616;28;20213;-69
2022/10/18 02:51:52;;;;;;;5.90;3.47;;;;;;;;;;5006028;28;20620;-69
2022/10/18 02:54:20;;;;;;;7.43;3.03;;;;;;;;;;5009035;28;20276;-69
2022/10/18 02:56:47;;;;;;;5.75;3.88;;;;;;;;;;5008961;28;20209;-69
2022/10/18 02:59:14;;;;;;;3.80;2.83;;;;;;;;;;5008537;28;20212;-69
2022/10/18 03:01:41;;;;;;;3.17;2.70;;;;;;;;;;5008234;28;20201;-70
2022/10/18 03:04:08;;;;;;;3.40;2.67;;;;;;;;;;5008341;28;20224;-67
2022/10/18 03:06:35;;;;;;;3.22;3.03;;;;;;;;;;5005509;28;20205;-66
2022/10/18 03:09:03;;;;;;;3.15;2.95;;;;;;;;;;5008087;28;20283;-69
2022/10/18 03:11:32;;;;;;;2.88;2.75;;;;;;;;;;5008351;28;20557;-66
2022/10/18 03:13:59;;;;;;;3.95;3.40;;;;;;;;;;5007396;28;20229;-67
2022/10/18 03:16:26;;;;;;;6.15;3.50;;;;;;;;;;5008365;28;20205;-67
2022/10/18 03:18:53;;;;;;;3.55;3.25;;;;;;;;;;5008210;28;20216;-66
2022/10/18 03:21:20;;;;;;;4.07;3.63;;;;;;;;;;5007869;28;20213;-67
2022/10/18 03:23:47;;;;;;;6.10;2.95;;;;;;;;;;5007121;28;20201;-69
2022/10/18 03:26:14;;;;;;;5.95;3.40;;;;;;;;;;5006319;28;20616;-66
2022/10/18 03:28:42;;;;;;;3.70;3.40;;;;;;;;;;5007770;28;20693;-67
2022/10/18 03:31:09;;;;;;;5.72;3.35;;;;;;;;;;5007973;28;20571;-66
2022/10/18 03:33:36;;;;;;;6.45;3.30;;;;;;;;;;5007699;28;20208;-69
2022/10/18 03:36:04;;;;;;;4.07;3.53;;;;;;;;;;5008240;28;20205;-69
2022/10/18 03:38:31;;;;;;;3.60;3.13;;;;;;;;;;5007094;28;20236;-69
2022/10/18 03:40:58;;;;;;;3.83;3.42;;;;;;;;;;5008644;28;20217;-69
2022/10/18 03:43:25;;;;;;;6.57;2.80;;;;;;;;;;5006416;28;20707;-69
2022/10/18 03:45:53;;;;;;;2.92;2.65;;;;;;;;;;5006862;28;20197;-69
2022/10/18 03:48:20;;;;;;;3.35;3.08;;;;;;;;;;5007514;28;20201;-70
2022/10/18 03:50:47;;;;;;;3.50;3.17;;;;;;;;;;5008012;28;20205;-67
2022/10/18 03:53:14;;;;;;;4.97;2.83;;;;;;;;;;5007615;28;20212;-69
2022/10/18 03:55:41;;;;;;;3.30;3.00;;;;;;;;;;5007420;28;20597;-70
2022/10/18 03:58:09;;;;;;;4.25;3.08;;;;;;;;;;5007698;28;20209;-69
2022/10/18 04:00:36;;;;;;;3.50;3.22;;;;;;;;;;5006926;28;20348;-69
2022/10/18 04:03:04;;;;;;;12.57;3.78;;;;;;;;;;5007910;28;20228;-69
2022/10/18 04:05:33;;;;;;;8.27;3.25;;;;;;;;;;5006339;28;20660;-69
2022/10/18 04:08:00;;;;;;;3.88;3.58;;;;;;;;;;5006463;28;20638;-69
2022/10/18 04:10:27;;;;;;;4.07;3.35;;;;;;;;;;5004980;28;20213;-66
2022/10/18 04:12:54;;;;;;;4.75;2.95;;;;;;;;;;5006791;28;20201;-66
2022/10/18 04:15:21;;;;;;;5.38;2.90;;;;;;;;;;5005887;28;20229;-65
2022/10/18 04:17:48;;;;;;;3.25;2.60;;;;;;;;;;5005594;28;20231;-65
2022/10/18 04:20:17;;;;;;;2.65;2.40;;;;;;;;;;5008591;28;20212;-65
2022/10/18 04:22:44;;;;;;;3.13;2.63;;;;;;;;;;5007146;28;20205;-65
2022/10/18 04:25:11;;;;;;;2.40;2.20;;;;;;;;;;5008178;28;20663;-66
2022/10/18 04:27:38;;;;;;;3.53;2.30;;;;;;;;;;5007348;28;20232;-65
2022/10/18 04:30:06;;;;;;;2.58;2.28;;;;;;;;;;5004908;28;20209;-66
2022/10/18 04:32:34;;;;;;;2.17;2.08;;;;;;;;;;5008029;28;20197;-68
2022/10/18 04:35:01;;;;;;;2.28;1.92;;;;;;;;;;5004818;28;20659;-68
2022/10/18 04:37:29;;;;;;;2.63;2.35;;;;;;;;;;5005763;28;20691;-68
2022/10/18 04:39:56;;;;;;;1.95;1.85;;;;;;;;;;5007818;28;20239;-66
2022/10/18 04:42:23;;;;;;;5.70;2.50;;;;;;;;;;5007465;28;20201;-66
2022/10/18 04:44:51;;;;;;;3.17;2.30;;;;;;;;;;5005155;28;20202;-66
2022/10/18 04:47:18;;;;;;;5.20;2.13;;;;;;;;;;5007166;28;20761;-66
2022/10/18 04:49:45;;;;;;;2.85;2.20;;;;;;;;;;5008039;28;20216;-66
2022/10/18 04:52:12;;;;;;;3.33;2.28;;;;;;;;;;5003737;28;20217;-66
2022/10/18 04:54:41;;;;;;;4.45;2.22;;;;;;;;;;5007722;28;20259;-66
2022/10/18 04:57:08;;;;;;;2.80;2.58;;;;;;;;;;5006115;28;20205;-66
2022/10/18 04:59:36;;;;;;;4.20;2.00;;;;;;;;;;5006944;28;20505;-66
2022/10/18 05:02:22;;;;;;;2.58;2.10;;;;;;;;;;5006934;28;20587;-66
2022/10/18 05:04:49;;;;;;;2.53;2.40;;;;;;;;;;4994915;28;20307;-66
2022/10/18 05:07:16;;;;;;;2.90;2.70;;;;;;;;;;5006767;28;20202;-67
2022/10/18 05:09:44;;;;;;;2.97;2.42;;;;;;;;;;5006957;28;20231;-66
2022/10/18 05:12:11;;;;;;;2.67;2.42;;;;;;;;;;5001337;28;20205;-68
2022/10/18 05:14:38;;;;;;;3.03;2.67;;;;;;;;;;5007674;28;20224;-68
2022/10/18 05:17:06;;;;;;;2.67;2.58;;;;;;;;;;5006036;28;20232;-65
2022/10/18 05:19:33;;;;;;;3.13;2.20;;;;;;;;;;5006692;28;20205;-67
2022/10/18 05:22:00;;;;;;;5.18;2.80;;;;;;;;;;5007889;28;20296;-65
2022/10/18 05:24:27;;;;;;;3.88;2.72;;;;;;;;;;5007486;28;20255;-65
2022/10/18 05:26:55;;;;;;;3.30;2.97;;;;;;;;;;5007733;28;20236;-65
2022/10/18 05:29:22;;;;;;;2.92;2.72;;;;;;;;;;5006360;28;20209;-65
2022/10/18 05:31:49;;;;;;;2.90;2.58;;;;;;;;;;5007180;28;20205;-68
2022/10/18 05:34:16;;;;;;;3.33;2.35;;;;;;;;;;5007644;28;20213;-66
2022/10/18 05:36:44;;;;;;;4.57;2.40;;;;;;;;;;5007959;28;20204;-66
2022/10/18 05:39:11;;;;;;;8.07;2.92;;;;;;;;;;5006128;28;20208;-66
2022/10/18 05:41:38;;;;;;;4.18;2.55;;;;;;;;;;5008203;28;20212;-66
2022/10/18 05:44:06;;;;;;;3.55;2.47;;;;;;;;;;5006038;28;20422;-66
2022/10/18 05:46:34;;;;;;;2.88;2.25;;;;;;;;;;5008086;28;20205;-66
2022/10/18 05:49:01;;;;;;;2.25;2.05;;;;;;;;;;5006292;28;20201;-66
2022/10/18 05:51:28;;;;;;;2.60;2.50;;;;;;;;;;5007752;28;20205;-66
2022/10/18 05:53:55;;;;;;;2.30;2.10;;;;;;;;;;5008016;28;20304;-67
2022/10/18 05:56:22;;;;;;;5.72;2.88;;;;;;;;;;5007687;28;20236;-66
2022/10/18 05:58:50;;;;;;;2.97;2.60;;;;;;;;;;5007846;28;20220;-66
2022/10/18 06:01:19;;;;;;;3.20;2.90;;;;;;;;;;5000813;28;20197;-66
2022/10/18 06:03:46;;;;;;;4.15;2.72;;;;;;;;;;4986176;28;20336;-66
2022/10/18 06:06:14;;;;;;;3.10;2.88;;;;;;;;;;4999712;28;20193;-66
2022/10/18 06:08:42;;;;;;;3.35;3.15;;;;;;;;;;5007490;28;20683;-66
2022/10/18 06:11:09;;;;;;;4.03;3.00;;;;;;;;;;5011312;28;20267;-67
2022/10/18 06:13:39;;;;;;;4.05;3.17;;;;;;;;;;5011486;28;21057;-66
2022/10/18 06:16:07;;;;;;;3.88;3.15;;;;;;;;;;5009385;28;20239;-66
2022/10/18 06:18:35;;;;;;;5.60;2.83;;;;;;;;;;5009333;28;20208;-66
2022/10/18 06:21:02;;;;;;;3.33;2.92;;;;;;;;;;5010759;28;20228;-66
2022/10/18 06:23:30;;;;;;;3.40;2.55;;;;;;;;;;5011025;28;20220;-66
2022/10/18 06:25:59;;;;;;;5.15;3.25;;;;;;;;;;5010982;28;20212;-66
2022/10/18 06:28:26;;;;;;;2.95;2.85;;;;;;;;;;5011009;28;20241;-66
2022/10/18 06:30:53;;;;;;;3.08;2.60;;;;;;;;;;5010990;28;20217;-67
2022/10/18 06:33:20;;;;;;;2.58;2.38;;;;;;;;;;5009145;28;20315;-67
2022/10/18 06:35:55;;;;;;;3.60;3.03;;;;;;;;;;4995876;28;20232;-66
2022/10/18 06:38:22;;;;;;;2.75;2.55;;;;;;;;;;4991379;28;20205;-66
2022/10/18 06:40:50;;;;;;;4.65;3.10;;;;;;;;;;5010921;28;20217;-66
2022/10/18 06:43:17;;;;;;;4.15;2.50;;;;;;;;;;5011055;28;20676;-67
2022/10/18 06:45:44;;;;;;;2.72;2.50;;;;;;;;;;5008978;28;20731;-66
2022/10/18 06:48:11;;;;;;;3.78;3.03;;;;;;;;;;5010525;28;20221;-66
2022/10/18 06:50:38;;;;;;;3.72;2.58;;;;;;;;;;5008063;28;20213;-65
2022/10/18 06:53:07;;;;;;;4.30;2.88;;;;;;;;;;5009723;28;20217;-64
2022/10/18 06:55:35;;;;;;;2.60;2.38;;;;;;;;;;5009787;28;20239;-65
2022/10/18 06:58:02;;;;;;;2.80;2.33;;;;;;;;;;5009640;28;20546;-67
2022/10/18 07:00:29;;;;;;;3.28;2.80;;;;;;;;;;5009647;28;20217;-64
2022/10/18 07:02:57;;;;;;;7.55;3.63;;;;;;;;;;5009496;28;20782;-65
2022/10/18 07:05:25;;;;;;;4.05;3.03;;;;;;;;;;5007178;28;20224;-66
2022/10/18 07:07:52;;;;;;;6.60;3.75;;;;;;;;;;5009291;28;20209;-65
2022/10/18 07:10:20;;;;;;;3.88;2.28;;;;;;;;;;5009416;28;20216;-65
2022/10/18 07:12:47;;;;;;;6.80;3.35;;;;;;;;;;5003464;28;20293;-66
2022/10/18 07:15:16;;;;;;;4.25;3.08;;;;;;;;;;4997726;28;20937;-66
2022/10/18 07:17:44;;;;;;;2.75;2.55;;;;;;;;;;5006951;28;20217;-65
2022/10/18 07:20:11;;;;;;;3.47;2.30;;;;;;;;;;5005725;28;20205;-66
2022/10/18 07:22:38;;;;;;;3.95;3.03;;;;;;;;;;5004755;28;20206;-66
2022/10/18 07:25:05;;;;;;;3.50;2.90;;;;;;;;;;5003037;28;20295;-66
2022/10/18 07:27:38;;;;;;;8.43;2.80;;;;;;;;;;5000914;28;20233;-66
2022/10/18 07:30:05;;;;;;;4.03;2.78;;;;;;;;;;4999028;28;20325;-66
2022/10/18 07:32:32;;;;;;;2.30;2.10;;;;;;;;;;5000340;28;20200;-66
2022/10/18 07:35:00;;;;;;;3.45;2.75;;;;;;;;;;5006147;28;20209;-66
2022/10/18 07:37:27;;;;;;;2.58;2.33;;;;;;;;;;5008414;28;20213;-67
2022/10/18 07:39:54;;;;;;;2.95;2.60;;;;;;;;;;5008988;28;20216;-66
2022/10/18 07:42:21;;;;;;;7.68;2.78;;;;;;;;;;5008591;28;20217;-67
2022/10/18 07:44:49;;;;;;;6.90;2.67;;;;;;;;;;5006685;28;20216;-66
2022/10/18 07:47:17;;;;;;;5.63;2.65;;;;;;;;;;5007133;28;20213;-66
2022/10/18 07:49:44;;;;;;;8.05;2.85;;;;;;;;;;5006968;28;20212;-70
2022/10/18 07:52:11;;;;;;;4.53;2.97;;;;;;;;;;4991809;28;20209;-75
2022/10/18 07:54:38;;;;;;;2.53;2.40;;;;;;;;;;5008482;28;20579;-69
2022/10/18 07:57:05;;;;;;;7.00;3.15;;;;;;;;;;5008167;28;20245;-69
2022/10/18 07:59:32;;;;;;;5.03;2.88;;;;;;;;;;5008177;28;20220;-64
2022/10/18 08:02:00;;;;;;;6.25;3.30;;;;;;;;;;5008239;28;20208;-71
2022/10/18 08:04:27;;;;;;;4.63;2.97;;;;;;;;;;5006268;28;20229;-70
2022/10/18 08:06:54;;;;;;;3.95;3.55;;;;;;;;;;5008019;28;20201;-70
2022/10/18 08:09:21;;;;;;;12.10;3.78;;;;;;;;;;5008251;28;20213;-70
2022/10/18 08:11:48;;;;;;;4.32;2.80;;;;;;;;;;5008212;28;20204;-70
2022/10/18 08:14:16;;;;;;;3.08;2.78;;;;;;;;;;5008142;28;20794;-71
2022/10/18 08:16:43;;;;;;;4.38;2.92;;;;;;;;;;5007813;28;20563;-70
2022/10/18 08:19:11;;;;;;;3.80;2.30;;;;;;;;;;5007894;28;20275;-71
2022/10/18 08:21:38;;;;;;;9.00;2.70;;;;;;;;;;5008156;28;20216;-71
2022/10/18 08:24:05;;;;;;;2.80;2.00;;;;;;;;;;5008210;28;20213;-71
2022/10/18 08:26:33;;;;;;;3.60;2.13;;;;;;;;;;5008023;28;20204;-71
2022/10/18 08:29:00;;;;;;;2.30;2.00;;;;;;;;;;5006590;28;20224;-71
2022/10/18 08:31:27;;;;;;;3.22;2.58;;;;;;;;;;5007537;28;20687;-69
2022/10/18 08:33:55;;;;;;;3.63;2.40;;;;;;;;;;5007453;28;20208;-69
2022/10/18 08:36:24;;;;;;;6.07;2.63;;;;;;;;;;5007537;28;20315;-69
2022/10/18 08:38:51;;;;;;;1.85;1.75;;;;;;;;;;5005623;28;20236;-66
2022/10/18 08:41:39;;;;;;;2.75;1.80;;;;;;;;;;5007814;28;20236;-67
2022/10/18 08:44:08;;;;;;;2.03;1.92;;;;;;;;;;4989215;28;20681;-68
2022/10/18 08:46:36;;;;;;;1.52;1.48;;;;;;;;;;5007656;28;20216;-73
2022/10/18 08:49:04;;;;;;;2.47;1.48;;;;;;;;;;5007380;28;20205;-70
2022/10/18 08:51:36;;;;;;;1.40;1.30;;;;;;;;;;5005196;28;20686;-69
2022/10/18 08:54:04;;;;;;;2.92;1.88;;;;;;;;;;5005893;28;20555;-69
2022/10/18 08:56:32;;;;;;;2.78;2.08;;;;;;;;;;5007665;28;20221;-64
2022/10/18 08:59:01;;;;;;;2.00;1.73;;;;;;;;;;5007580;28;20703;-69
2022/10/18 09:01:30;;;;;;;2.20;2.10;;;;;;;;;;5007628;28;20212;-70
2022/10/18 09:04:08;;;;;;;3.35;2.03;;;;;;;;;;5007101;28;20726;-70
2022/10/18 09:06:39;;;;;;;2.55;2.00;;;;;;;;;;4999394;28;20201;-71
2022/10/18 09:09:13;;;;;;;3.78;1.52;;;;;;;;;;5002368;28;20215;-71
2022/10/18 09:11:45;;;;;;;1.77;1.67;;;;;;;;;;4999762;28;20212;-71
2022/10/18 09:14:20;;;;;;;3.13;2.10;;;;;;;;;;5002990;28;20209;-71
2022/10/18 09:16:50;;;;;;;1.92;1.83;;;;;;;;;;5003646;28;20232;-70
2022/10/18 09:19:22;;;;;;;1.95;1.95;;;;;;;;;;5005534;28;20208;-69
2022/10/18 09:21:52;;;;;;;1.85;1.85;;;;;;;;;;5016144;28;20219;-70
2022/10/18 09:24:23;;;;;;;2.13;2.03;;;;;;;;;;5020491;28;20663;-70
2022/10/18 09:26:54;;;;;;;2.53;1.95;;;;;;;;;;5015548;28;20239;-69
2022/10/18 09:29:30;;;;;;;2.50;2.30;;;;;;;;;;5002820;28;20213;-70
2022/10/18 09:32:03;;;;;;;3.03;2.55;;;;;;;;;;5009138;28;20670;-70
2022/10/18 09:34:32;;;;;;;1.92;1.83;;;;;;;;;;5017534;28;20208;-70
2022/10/18 09:37:01;;;;;;;1.95;1.80;;;;;;;;;;5009255;28;20241;-70
2022/10/18 09:39:30;;;;;;;3.03;2.83;;;;;;;;;;5000199;28;20212;-70
2022/10/18 09:42:00;;;;;;;2.47;2.38;;;;;;;;;;5013481;28;20216;-72
2022/10/18 09:44:29;;;;;;;2.70;2.50;;;;;;;;;;5016389;28;20208;-70
2022/10/18 09:46:59;;;;;;;2.40;2.25;;;;;;;;;;5014129;28;20196;-67
2022/10/18 09:49:28;;;;;;;2.28;2.17;;;;;;;;;;5028480;28;20220;-67
2022/10/18 09:51:56;;;;;;;15.82;6.97;;;;;;;;;;5016105;28;20231;-70
2022/10/18 09:54:28;;;;;;;11.98;3.88;;;;;;;;;;5022610;28;20243;-69
2022/10/18 09:56:58;;;;;;;1.30;1.30;;;;;;;;;;5010801;28;20217;-69
2022/10/18 09:59:30;;;;;;;3.90;3.00;;;;;;;;;;5014137;28;20667;-73
2022/10/18 10:02:21;;;;;;;6.47;2.80;;;;;;;;;;5015050;28;20215;-71
2022/10/18 10:04:49;;;;;;;9.48;5.18;;;;;;;;;;4994832;28;20229;-72
2022/10/18 10:07:19;;;;;;;3.03;1.85;;;;;;;;;;4991226;28;20319;-72
2022/10/18 10:09:48;;;;;;;2.15;1.25;;;;;;;;;;4998606;28;20783;-72
2022/10/18 10:12:26;;;;;;;1.73;1.70;;;;;;;;;;5010649;28;20205;-71
2022/10/18 10:14:53;;;;;;;1.40;1.30;;;;;;;;;;5008329;28;20216;-72
2022/10/18 10:17:23;;;;;;;1.00;1.00;;;;;;;;;;5010130;28;20691;-72
2022/10/18 10:19:56;;;;;;;0.95;0.95;;;;;;;;;;5009829;28;20209;-72
2022/10/18 10:22:27;;;;;;;0.52;0.52;;;;;;;;;;5009183;28;20236;-72
2022/10/18 10:24:56;;;;;;;0.50;0.50;;;;;;;;;;5009880;28;20280;-72
2022/10/18 10:27:27;;;;;;;0.70;0.70;;;;;;;;;;5009882;28;20252;-72
2022/10/18 10:29:56;;;;;;;0.50;0.50;;;;;;;;;;5010246;28;20224;-71
2022/10/18 10:32:23;;;;;;;0.50;0.50;;;;;;;;;;5008052;28;20814;-72
2022/10/18 10:34:51;;;;;;;0.40;0.40;;;;;;;;;;5007861;28;20212;-72
2022/10/18 10:37:23;;;;;;;0.47;0.47;;;;;;;;;;5008639;28;20259;-71
2022/10/18 10:40:05;;;;;;;0.90;0.40;;;;;;;;;;5006138;28;20555;-71
2022/10/18 10:42:33;;;;;;;0.47;0.47;;;;;;;;;;5007590;28;20672;-71
2022/10/18 10:45:02;;;;;;;0.75;0.75;;;;;;;;;;5009881;28;20220;-72
2022/10/18 10:47:29;;;;;;;0.30;0.30;;;;;;;;;;5010130;28;20225;-71
2022/10/18 10:49:56;;;;;;;0.43;0.43;;;;;;;;;;5005744;28;20209;-71
2022/10/18 10:52:26;;;;;;;0.45;0.40;;;;;;;;;;5009625;28;20212;-71
2022/10/18 10:54:54;;;;;;;0.75;0.40;;;;;;;;;;4989490;28;20300;-72
2022/10/18 10:57:24;;;;;;;1.55;0.30;;;;;;;;;;4988077;28;20248;-72
2022/10/18 10:59:52;;;;;;;0.40;0.40;;;;;;;;;;4990023;28;20218;-72
2022/10/18 11:02:22;;;;;;;0.32;0.32;;;;;;;;;;4990247;28;20869;-72
2022/10/18 11:04:49;;;;;;;0.30;0.30;;;;;;;;;;4989864;28;20288;-71
2022/10/18 11:07:20;;;;;;;0.40;0.35;;;;;;;;;;4989972;28;20649;-71
2022/10/18 11:09:54;;;;;;;0.25;0.25;;;;;;;;;;4999540;28;20224;-72
2022/10/18 11:12:25;;;;;;;0.40;0.40;;;;;;;;;;5008724;28;20201;-65
2022/10/18 11:14:56;;;;;;;0.30;0.30;;;;;;;;;;5007925;28;20575;-66
2022/10/18 11:17:28;;;;;;;0.40;0.40;;;;;;;;;;5007649;28;20236;-65
2022/10/18 11:20:22;;;;;;;0.50;0.50;;;;;;;;;;5000767;28;20215;-70
2022/10/18 11:22:57;;;;;;;0.50;0.30;;;;;;;;;;5010067;28;20212;-75
2022/10/18 11:25:25;;;;;;;0.32;0.32;;;;;;;;;;5017129;28;20201;-75
2022/10/18 11:27:58;;;;;;;1.50;0.35;;;;;;;;;;5011222;28;20747;-78
2022/10/18 11:30:35;;;;;;;1.05;0.38;;;;;;;;;;5003708;28;20638;-71
2022/10/18 11:33:06;;;;;;;0.68;0.15;;;;;;;;;;5008822;28;20228;-72
2022/10/18 11:35:39;;;;;;;0.38;0.20;;;;;;;;;;5021245;28;20219;-72
2022/10/18 11:38:11;;;;;;;2.45;0.30;;;;;;;;;;5009083;28;20291;-72
2022/10/18 11:40:45;;;;;;;0.25;0.25;;;;;;;;;;5024120;28;20212;-72
2022/10/18 11:43:17;;;;;;;0.20;0.20;;;;;;;;;;5028094;28;20709;-72
2022/10/18 11:45:46;;;;;;;0.20;0.20;;;;;;;;;;5016674;28;20216;-72
2022/10/18 11:48:21;;;;;;;1.48;0.30;;;;;;;;;;5003880;28;20227;-72
2022/10/18 11:50:51;;;;;;;0.20;0.20;;;;;;;;;;5012663;28;20216;-72
2022/10/18 11:53:23;;;;;;;0.55;0.20;;;;;;;;;;5008019;28;20288;-73
2022/10/18 11:55:57;;;;;;;0.30;0.30;;;;;;;;;;5021231;28;20231;-72
2022/10/18 11:58:33;;;;;;;0.30;0.20;;;;;;;;;;5005884;28;20224;-72
2022/10/18 12:01:05;;;;;;;2.13;0.15;;;;;;;;;;5008839;28;20283;-72
2022/10/18 12:03:35;;;;;;;0.13;0.13;;;;;;;;;;5008094;28;20225;-72
2022/10/18 12:06:04;;;;;;;0.20;0.20;;;;;;;;;;4995249;28;20213;-72
2022/10/18 12:08:33;;;;;;;0.25;0.20;;;;;;;;;;4999440;28;20263;-71
2022/10/18 12:11:04;;;;;;;0.20;0.20;;;;;;;;;;5023013;28;20216;-72
2022/10/18 12:13:35;;;;;;;0.20;0.20;;;;;;;;;;5017804;28;20323;-69
2022/10/18 12:16:03;;;;;;;0.13;0.13;;;;;;;;;;5024294;28;20213;-71
2022/10/18 12:18:32;;;;;;;0.65;0.30;;;;;;;;;;5009836;28;20253;-71
2022/10/18 12:20:59;;;;;;;0.32;0.20;;;;;;;;;;5006478;28;20220;-71
2022/10/18 12:23:31;;;;;;;0.13;0.13;;;;;;;;;;5008263;28;20919;-70
2022/10/18 12:26:01;;;;;;;0.38;0.15;;;;;;;;;;5006152;28;20201;-71
2022/10/18 12:28:44;;;;;;;0.22;0.20;;;;;;;;;;5127663;27;20885;-70
2022/10/18 12:31:16;;;;;;;0.28;0.28;;;;;;;;;;5117633;28;20201;-70
2022/10/18 12:33:45;;;;;;;0.38;0.38;;;;;;;;;;5113932;28;20299;-68
2022/10/18 12:36:18;;;;;;;1.73;0.35;;;;;;;;;;5105725;28;20210;-68
2022/10/18 12:38:46;;;;;;;0.13;0.13;;;;;;;;;;5122368;28;20225;-71
2022/10/18 12:41:18;;;;;;;0.25;0.25;;;;;;;;;;5123621;28;20219;-71
2022/10/18 12:43:52;;;;;;;0.75;0.20;;;;;;;;;;5115103;28;20202;-72
2022/10/18 12:46:20;;;;;;;0.38;0.35;;;;;;;;;;5102881;28;20221;-73
2022/10/18 12:48:49;;;;;;;0.20;0.20;;;;;;;;;;5103116;28;20213;-71
2022/10/18 12:51:18;;;;;;;0.50;0.15;;;;;;;;;;5123092;28;20205;-71
2022/10/18 12:53:46;;;;;;;0.30;0.30;;;;;;;;;;5123382;28;20205;-71
2022/10/18 12:56:28;;;;;;;0.10;0.10;;;;;;;;;;5121139;28;20205;-71
2022/10/18 12:59:17;;;;;;;0.20;0.20;;;;;;;;;;5109632;28;20209;-71
2022/10/18 13:01:59;;;;;;;0.10;0.10;;;;;;;;;;5105353;28;20198;-71
2022/10/18 13:04:37;;;;;;;0.30;0.30;;;;;;;;;;5108423;27;21046;-71
2022/10/18 13:07:18;;;;;;;0.30;0.30;;;;;;;;;;5104071;28;20228;-71
2022/10/18 13:10:16;;;;;;;0.63;0.20;;;;;;;;;;5115408;28;20289;-71
2022/10/18 13:12:52;;;;;;;0.85;0.30;;;;;;;;;;5116659;28;20664;-71
2022/10/18 13:15:35;;;;;;;0.17;0.17;;;;;;;;;;5104308;28;20213;-74
2022/10/18 13:18:05;;;;;;;0.35;0.20;;;;;;;;;;5104195;28;20300;-72
2022/10/18 13:20:37;;;;;;;0.20;0.20;;;;;;;;;;5102515;28;20231;-74
2022/10/18 13:23:10;;;;;;;0.30;0.30;;;;;;;;;;5115840;28;20215;-73
2022/10/18 13:25:53;;;;;;;2.92;0.32;;;;;;;;;;5118213;28;20206;-74
2022/10/18 13:28:25;;;;;;;0.20;0.20;;;;;;;;;;5113701;28;20228;-73
2022/10/18 13:30:54;;;;;;;0.30;0.30;;;;;;;;;;5123809;28;20675;-70
2022/10/18 13:33:31;;;;;;;0.20;0.20;;;;;;;;;;5124211;28;20209;-76
2022/10/18 13:36:00;;;;;;;0.20;0.20;;;;;;;;;;5120449;28;20310;-71
2022/10/18 13:38:33;;;;;;;0.30;0.30;;;;;;;;;;5118050;27;20208;-71
2022/10/18 13:41:01;;;;;;;0.17;0.17;;;;;;;;;;5092778;28;20216;-69
2022/10/18 13:43:47;;;;;;;0.30;0.30;;;;;;;;;;5090723;28;20222;-74
2022/10/18 13:46:14;;;;;;;0.32;0.30;;;;;;;;;;5100457;28;20726;-73
2022/10/18 13:48:51;;;;;;;0.30;0.30;;;;;;;;;;5098872;28;20222;-74
2022/10/18 13:51:35;;;;;;;0.30;0.30;;;;;;;;;;5094661;28;20201;-72
2022/10/18 13:54:08;;;;;;;1.00;0.40;;;;;;;;;;5091006;28;20671;-67
2022/10/18 13:56:47;;;;;;;0.30;0.30;;;;;;;;;;5096543;28;20202;-69
2022/10/18 13:59:22;;;;;;;0.20;0.20;;;;;;;;;;5090373;28;20627;-71
2022/10/18 14:01:56;;;;;;;1.55;0.30;;;;;;;;;;5106340;28;20201;-71
2022/10/18 14:04:38;;;;;;;0.40;0.40;;;;;;;;;;5110429;28;20222;-73
2022/10/18 14:07:06;;;;;;;0.20;0.20;;;;;;;;;;5097518;28;20249;-70
2022/10/18 14:09:37;;;;;;;0.20;0.20;;;;;;;;;;5096340;28;20313;-70
2022/10/18 14:12:09;;;;;;;0.20;0.20;;;;;;;;;;5095233;28;20541;-70
2022/10/18 14:14:37;;;;;;;0.28;0.15;;;;;;;;;;5089734;28;20206;-69
2022/10/18 14:17:08;;;;;;;0.30;0.30;;;;;;;;;;5093929;28;20193;-70
2022/10/18 14:19:38;;;;;;;0.55;0.35;;;;;;;;;;5109682;28;20229;-70
2022/10/18 14:22:11;;;;;;;10.82;0.65;;;;;;;;;;5107755;28;20198;-70
2022/10/18 14:24:41;;;;;;;2.15;0.50;;;;;;;;;;5093812;28;20226;-70
2022/10/18 14:27:12;;;;;;;0.68;0.22;;;;;;;;;;5089060;28;20238;-69
2022/10/18 14:29:40;;;;;;;0.32;0.32;;;;;;;;;;5102054;28;20255;-68
2022/10/18 14:32:09;;;;;;;0.75;0.40;;;;;;;;;;5097220;28;20234;-69
2022/10/18 14:34:36;;;;;;;3.30;0.40;;;;;;;;;;5089205;28;20213;-68
2022/10/18 14:37:03;;;;;;;0.43;0.35;;;;;;;;;;5099588;28;20202;-69
2022/10/18 14:39:32;;;;;;;0.85;0.30;;;;;;;;;;5109102;28;20558;-68
2022/10/18 14:42:01;;;;;;;0.30;0.30;;;;;;;;;;5100196;28;20309;-70
2022/10/18 14:44:29;;;;;;;2.25;0.50;;;;;;;;;;5088967;28;20203;-70
2022/10/18 14:47:01;;;;;;;1.27;0.63;;;;;;;;;;5088654;28;20218;-71
2022/10/18 14:49:29;;;;;;;0.50;0.50;;;;;;;;;;5088748;28;20301;-70
2022/10/18 14:51:57;;;;;;;0.60;0.60;;;;;;;;;;5088253;28;20211;-70
2022/10/18 14:54:25;;;;;;;0.25;0.25;;;;;;;;;;5089507;28;20285;-71
2022/10/18 14:56:53;;;;;;;2.58;0.40;;;;;;;;;;5088275;28;20203;-70
2022/10/18 14:59:23;;;;;;;30.40;8.02;;;;;;;;;;5106803;28;20213;-70